Terminal Aerodrome Forecast
Issued by NWS

Home | Current Version | Previous Version | Text Only | Print | Product List | Glossary On
Versions: 1 2 3 4 5 6 7 8 9 10 11 12 13
000
FTUS41 KCAR 261803 AAA
TAFHUL
TAF AMD
KHUL 261803Z 2618/2718 24009G15KT P6SM BKN035 OVC070
     FM262200 25008KT 6SM -RA BKN025 OVC050
     FM270200 24005KT 3SM -RASN BR OVC015
     FM270400 25004KT 1 1/2SM -SN BR BKN008 OVC015
     FM270600 29004KT 4SM -SHSN OVC015
     FM270900 31006KT P6SM OVC025
     FM271200 33008KT P6SM BKN035=

USA.gov is the U.S. government's official web portal to all federal, state and local government web resources and services.